createdAt,value
2019-06-26T00:00:50.979Z,25.55
2019-06-26T00:03:19.510Z,25.59
2019-06-26T00:05:46.534Z,25.42
2019-06-26T00:08:16.776Z,25.20
2019-06-26T00:10:43.955Z,25.06
2019-06-26T00:13:26.101Z,24.99
2019-06-26T00:15:50.640Z,24.97
2019-06-26T00:18:17.714Z,24.96
2019-06-26T00:20:44.986Z,24.84
2019-06-26T00:23:13.228Z,24.66
2019-06-26T00:25:40.296Z,24.51
2019-06-26T00:28:07.433Z,24.46
2019-06-26T00:30:35.710Z,24.54
2019-06-26T00:33:02.789Z,24.62
2019-06-26T00:35:30.218Z,24.60
2019-06-26T00:37:57.565Z,24.63
2019-06-26T00:40:24.613Z,24.63
2019-06-26T00:42:51.681Z,24.70
2019-06-26T00:45:18.763Z,24.71
2019-06-26T00:47:45.774Z,24.65
2019-06-26T00:50:13.201Z,24.59
2019-06-26T00:52:40.666Z,24.41
2019-06-26T00:55:09.354Z,24.43
2019-06-26T00:57:36.386Z,24.47
2019-06-26T01:00:08.304Z,24.45
2019-06-26T01:02:36.657Z,24.46
2019-06-26T01:05:06.479Z,24.48
2019-06-26T01:07:33.557Z,24.45
2019-06-26T01:10:00.627Z,24.38
2019-06-26T01:12:27.666Z,24.30
2019-06-26T01:14:55.946Z,24.17
2019-06-26T01:17:23.593Z,24.10
2019-06-26T01:19:50.632Z,23.94
2019-06-26T01:22:21.009Z,23.78
2019-06-26T01:24:48.054Z,23.75
2019-06-26T01:27:15.399Z,23.77
2019-06-26T01:29:52.743Z,23.75
2019-06-26T01:32:27.601Z,23.78
2019-06-26T01:35:12.283Z,23.83
2019-06-26T01:37:39.729Z,23.97
2019-06-26T01:40:07.548Z,23.99
2019-06-26T01:42:34.653Z,24.00
2019-06-26T01:45:01.681Z,24.03
2019-06-26T01:47:29.900Z,24.05
2019-06-26T01:49:56.985Z,24.02
2019-06-26T01:52:24.013Z,24.02
2019-06-26T01:54:51.321Z,23.83
2019-06-26T01:57:18.389Z,23.66
2019-06-26T01:59:48.882Z,23.72
2019-06-26T02:02:16.490Z,23.91
2019-06-26T02:04:43.540Z,23.96
2019-06-26T02:07:10.560Z,24.01
2019-06-26T02:09:37.631Z,24.00
2019-06-26T02:12:04.717Z,23.81
2019-06-26T02:14:32.102Z,23.29
2019-06-26T02:16:59.196Z,22.73
2019-06-26T02:19:27.373Z,22.59
2019-06-26T02:21:55.782Z,22.35
2019-06-26T02:24:23.006Z,22.21
2019-06-26T02:27:00.666Z,22.16
2019-06-26T02:29:29.129Z,21.96
2019-06-26T02:31:56.166Z,21.98
2019-06-26T02:34:27.780Z,21.81
2019-06-26T02:36:55.209Z,21.87
2019-06-26T02:39:22.241Z,22.29
2019-06-26T02:41:49.291Z,22.63
2019-06-26T02:44:16.333Z,22.88
2019-06-26T02:46:43.371Z,22.97
2019-06-26T02:49:10.608Z,23.10
2019-06-26T02:51:37.643Z,23.15
2019-06-26T02:54:04.659Z,23.14
2019-06-26T02:56:31.713Z,23.04
2019-06-26T02:59:04.203Z,22.88
2019-06-26T03:01:36.616Z,22.92
2019-06-26T03:04:05.955Z,22.88
2019-06-26T03:06:32.960Z,22.71
2019-06-26T03:09:08.631Z,22.69
2019-06-26T03:11:36.883Z,22.64
2019-06-26T03:14:03.926Z,22.77
2019-06-26T03:16:34.266Z,22.89
2019-06-26T03:19:01.284Z,22.81
2019-06-26T03:21:28.360Z,22.81
2019-06-26T03:24:19.085Z,22.74
2019-06-26T03:27:21.842Z,22.70
2019-06-26T03:29:50.195Z,22.74
2019-06-26T03:32:17.270Z,22.82
2019-06-26T03:34:44.414Z,22.87
2019-06-26T03:37:14.607Z,22.96
2019-06-26T03:39:41.638Z,23.01
2019-06-26T03:42:08.807Z,23.10
2019-06-26T03:44:47.007Z,23.14
2019-06-26T03:47:21.503Z,23.25
2019-06-26T03:50:09.741Z,23.28
2019-06-26T03:52:47.614Z,23.24
2019-06-26T03:55:24.580Z,23.27
2019-06-26T03:57:57.192Z,23.40
2019-06-26T04:00:53.285Z,23.57
2019-06-26T04:03:37.162Z,23.81
2019-06-26T04:06:08.732Z,24.06
2019-06-26T04:08:53.315Z,24.31
2019-06-26T04:11:23.443Z,24.57
2019-06-26T04:13:50.507Z,24.79
2019-06-26T04:16:20.919Z,24.93
2019-06-26T04:18:48.014Z,25.10
2019-06-26T04:21:15.442Z,25.36
2019-06-26T04:23:43.628Z,25.66
2019-06-26T04:26:10.720Z,25.94
2019-06-26T04:28:37.845Z,26.23
2019-06-26T04:31:04.928Z,26.48
2019-06-26T04:33:33.887Z,26.71
2019-06-26T04:36:02.282Z,27.02
2019-06-26T04:38:29.643Z,27.36
2019-06-26T04:41:10.659Z,27.58
2019-06-26T04:43:47.087Z,27.86
2019-06-26T04:46:21.611Z,28.13
2019-06-26T04:48:57.180Z,28.45
2019-06-26T04:51:32.369Z,28.67
2019-06-26T04:54:10.767Z,29.09
2019-06-26T04:56:47.248Z,29.39
2019-06-26T05:02:35.833Z,29.81
2019-06-26T05:05:38.468Z,29.92
2019-06-26T05:07:58.536Z,30.25
2019-06-26T05:10:29.232Z,30.58
2019-06-26T05:12:56.701Z,30.76
2019-06-26T05:15:24.140Z,30.99
2019-06-26T05:18:36.670Z,31.14
2019-06-26T05:21:10.858Z,31.41
2019-06-26T05:24:11.880Z,31.28
2019-06-26T05:26:51.492Z,30.92
2019-06-26T05:29:19.613Z,31.12
2019-06-26T05:31:47.931Z,31.28
2019-06-26T05:34:22.705Z,31.64
2019-06-26T05:36:58.178Z,31.84
2019-06-26T05:39:45.249Z,31.86
2019-06-26T05:42:16.654Z,32.37
2019-06-26T05:44:45.009Z,32.87
2019-06-26T05:47:15.750Z,33.39
2019-06-26T05:49:49.523Z,33.56
2019-06-26T05:52:31.082Z,32.48
2019-06-26T05:55:03.838Z,30.14
2019-06-26T05:57:37.412Z,30.39
2019-06-26T06:00:16.910Z,30.66
2019-06-26T06:02:47.785Z,30.27
2019-06-26T06:05:27.433Z,29.47
2019-06-26T06:08:06.486Z,29.95
2019-06-26T06:10:44.300Z,31.32
2019-06-26T06:13:19.112Z,32.43
2019-06-26T06:15:54.980Z,33.07
2019-06-26T06:18:22.421Z,33.03
2019-06-26T06:20:50.773Z,33.73
2019-06-26T06:23:17.890Z,34.13
2019-06-26T06:25:47.470Z,33.30
2019-06-26T06:28:14.763Z,33.58
2019-06-26T06:30:48.018Z,32.21
2019-06-26T06:33:16.883Z,31.73
2019-06-26T06:35:45.932Z,33.26
2019-06-26T06:38:13.008Z,34.41
2019-06-26T06:44:34.020Z,35.87
2019-06-26T06:47:04.558Z,34.78
2019-06-26T06:49:31.702Z,33.20
2019-06-26T06:52:00.679Z,32.16
2019-06-26T06:54:31.420Z,32.79
2019-06-26T06:56:58.579Z,34.55
2019-06-26T06:59:25.940Z,34.24
2019-06-26T07:01:58.322Z,33.46
2019-06-26T07:04:26.276Z,33.19
2019-06-26T07:06:58.814Z,33.99
2019-06-26T07:09:32.416Z,35.89
2019-06-26T07:12:01.721Z,35.86
2019-06-26T07:15:03.185Z,32.07
2019-06-26T07:17:44.759Z,32.10
2019-06-26T07:20:12.038Z,34.59
2019-06-26T07:22:39.103Z,36.14
2019-06-26T07:25:13.466Z,37.94
2019-06-26T07:28:23.559Z,39.10
2019-06-26T07:30:58.270Z,39.53
2019-06-26T07:33:27.747Z,39.57
2019-06-26T07:36:08.129Z,40.61
2019-06-26T07:38:48.225Z,41.27
2019-06-26T07:41:23.641Z,42.22
2019-06-26T07:43:55.276Z,42.64
2019-06-26T07:46:23.104Z,41.81
2019-06-26T07:48:57.779Z,41.99
2019-06-26T07:55:12.490Z,40.49
2019-06-26T07:57:41.332Z,41.35
2019-06-26T08:00:16.931Z,41.85
2019-06-26T08:02:46.553Z,42.05
2019-06-26T08:05:32.915Z,42.55
2019-06-26T08:08:02.250Z,42.80
2019-06-26T08:10:33.757Z,38.96
2019-06-26T08:13:00.930Z,37.97
2019-06-26T08:15:28.020Z,38.40
2019-06-26T08:18:00.691Z,37.37
2019-06-26T08:20:25.695Z,38.50
2019-06-26T08:22:53.973Z,39.95
2019-06-26T08:25:22.267Z,39.88
2019-06-26T08:27:49.379Z,37.57
2019-06-26T08:30:16.920Z,37.15
2019-06-26T08:32:44.809Z,34.19
2019-06-26T08:35:12.336Z,34.92
2019-06-26T08:37:39.507Z,37.61
2019-06-26T08:40:07.385Z,38.23
2019-06-26T08:42:34.673Z,37.28
2019-06-26T08:45:01.948Z,37.78
2019-06-26T08:47:30.227Z,37.48
2019-06-26T08:50:01.387Z,40.12
2019-06-26T08:52:33.871Z,42.27
2019-06-26T08:55:01.091Z,43.57
2019-06-26T08:57:28.136Z,45.40
2019-06-26T08:59:55.675Z,44.04
2019-06-26T09:02:22.779Z,42.70
2019-06-26T09:04:49.985Z,44.06
2019-06-26T09:07:17.054Z,42.22
2019-06-26T09:09:44.524Z,38.11
2019-06-26T09:12:11.563Z,39.40
2019-06-26T09:14:38.983Z,40.24
2019-06-26T09:17:06.116Z,40.92
2019-06-26T09:19:34.452Z,38.15
2019-06-26T09:22:01.582Z,35.76
2019-06-26T09:24:28.697Z,35.21
2019-06-26T09:26:55.713Z,37.74
2019-06-26T09:29:24.143Z,39.60
2019-06-26T09:31:51.361Z,40.72
2019-06-26T09:34:18.527Z,40.33
2019-06-26T09:36:45.610Z,39.77
2019-06-26T09:39:18.433Z,39.17
2019-06-26T09:41:46.582Z,38.98
2019-06-26T09:44:15.918Z,38.48
2019-06-26T09:46:44.810Z,37.72
2019-06-26T09:49:11.999Z,36.14
2019-06-26T09:51:39.256Z,36.87
2019-06-26T09:54:07.611Z,37.43
2019-06-26T09:56:34.628Z,37.69
2019-06-26T09:59:01.685Z,36.78
2019-06-26T10:01:28.975Z,37.59
2019-06-26T10:03:56.019Z,37.53
2019-06-26T10:06:23.190Z,38.38
2019-06-26T10:08:54.073Z,39.65
2019-06-26T10:11:21.668Z,39.80
2019-06-26T10:13:48.710Z,37.20
2019-06-26T10:16:17.595Z,37.04
2019-06-26T10:18:45.022Z,37.81
2019-06-26T10:21:12.129Z,37.83
2019-06-26T10:23:39.236Z,38.13
2019-06-26T10:26:06.299Z,38.54
2019-06-26T10:28:33.321Z,37.97
2019-06-26T10:31:00.512Z,38.97
2019-06-26T10:33:29.097Z,39.51
2019-06-26T10:35:57.240Z,39.84
2019-06-26T10:38:30.926Z,39.59
2019-06-26T10:40:59.506Z,38.98
2019-06-26T10:43:26.586Z,39.15
2019-06-26T10:45:53.654Z,39.80
2019-06-26T10:48:20.677Z,40.87
2019-06-26T10:50:52.032Z,40.65
2019-06-26T10:53:16.855Z,40.81
2019-06-26T10:55:43.938Z,41.00
2019-06-26T10:58:10.949Z,42.00
2019-06-26T11:00:39.406Z,41.01
2019-06-26T11:03:07.291Z,41.19
2019-06-26T11:05:36.267Z,41.98
2019-06-26T11:08:09.718Z,41.96
2019-06-26T11:10:38.664Z,41.94
2019-06-26T11:13:09.944Z,41.54
2019-06-26T11:15:40.231Z,40.16
2019-06-26T11:18:09.550Z,40.72
2019-06-26T11:20:36.948Z,42.25
2019-06-26T11:23:05.833Z,43.64
2019-06-26T11:25:32.903Z,44.65
2019-06-26T11:28:14.663Z,46.99
2019-06-26T11:30:51.939Z,50.26
2019-06-26T11:33:20.963Z,51.19
2019-06-26T11:36:08.369Z,52.86
2019-06-26T11:38:35.575Z,52.96
2019-06-26T11:41:02.660Z,50.31
2019-06-26T11:43:30.179Z,50.95
2019-06-26T11:45:57.340Z,50.75
2019-06-26T11:48:26.239Z,50.76
2019-06-26T11:50:58.901Z,48.25
2019-06-26T11:53:26.002Z,49.96
2019-06-26T11:55:53.384Z,52.86
2019-06-26T11:58:20.528Z,54.03
2019-06-26T12:00:48.978Z,54.84
2019-06-26T12:03:16.197Z,56.36
2019-06-26T12:05:43.301Z,57.59
2019-06-26T12:08:10.706Z,51.35
2019-06-26T12:10:37.987Z,52.55
2019-06-26T12:13:05.140Z,54.95
2019-06-26T12:15:32.223Z,57.14
2019-06-26T12:18:01.737Z,54.87
2019-06-26T12:20:28.977Z,56.53
2019-06-26T12:22:57.846Z,57.73
2019-06-26T12:25:24.924Z,58.84
2019-06-26T12:27:53.123Z,56.31
2019-06-26T12:30:20.554Z,54.50
2019-06-26T12:33:02.454Z,51.93
2019-06-26T12:35:16.933Z,50.04
2019-06-26T12:37:48.030Z,51.68
2019-06-26T12:40:15.824Z,53.88
2019-06-26T12:42:42.898Z,54.10
2019-06-26T12:45:12.374Z,46.93
2019-06-26T12:47:39.448Z,52.08
2019-06-26T12:50:07.659Z,54.60
2019-06-26T12:52:36.074Z,53.86
2019-06-26T12:55:03.553Z,55.34
2019-06-26T12:57:30.726Z,53.16
2019-06-26T12:59:59.752Z,54.85
2019-06-26T13:02:27.394Z,56.75
2019-06-26T13:04:55.614Z,58.47
2019-06-26T13:07:22.635Z,55.84
2019-06-26T13:09:49.826Z,48.96
2019-06-26T13:12:16.890Z,53.37
2019-06-26T13:14:44.043Z,57.24
2019-06-26T13:17:11.230Z,60.12
2019-06-26T13:19:38.295Z,62.34
2019-06-26T13:22:05.399Z,59.25
2019-06-26T13:24:32.493Z,57.33
2019-06-26T13:27:00.670Z,57.45
2019-06-26T13:29:29.956Z,56.46
2019-06-26T13:31:57.435Z,54.96
2019-06-26T13:34:26.309Z,56.73
2019-06-26T13:36:53.392Z,57.51
2019-06-26T13:39:20.498Z,60.78
2019-06-26T13:41:47.718Z,62.65
2019-06-26T13:44:15.739Z,60.00
2019-06-26T13:46:42.814Z,50.03
2019-06-26T13:49:16.413Z,54.96
2019-06-26T13:51:43.718Z,55.47
2019-06-26T13:54:11.535Z,47.64
2019-06-26T13:56:38.879Z,47.07
2019-06-26T13:59:07.533Z,50.71
2019-06-26T14:01:34.912Z,53.01
2019-06-26T14:04:04.924Z,54.07
2019-06-26T14:06:34.817Z,55.02
2019-06-26T14:09:05.814Z,53.48
2019-06-26T14:11:32.855Z,56.43
2019-06-26T14:13:59.974Z,57.08
2019-06-26T14:16:30.034Z,53.83
2019-06-26T14:19:00.091Z,51.31
2019-06-26T14:21:28.966Z,51.64
2019-06-26T14:23:57.307Z,50.47
2019-06-26T14:26:24.361Z,51.78
2019-06-26T14:28:53.919Z,55.80
2019-06-26T14:31:23.378Z,58.65
2019-06-26T14:33:54.050Z,57.31
2019-06-26T14:36:23.422Z,59.17
2019-06-26T14:38:51.800Z,58.07
2019-06-26T14:41:18.927Z,58.22
2019-06-26T14:43:48.023Z,51.56
2019-06-26T14:46:15.146Z,51.71
2019-06-26T14:48:48.645Z,54.47
2019-06-26T14:51:16.124Z,57.32
2019-06-26T14:53:45.978Z,59.62
2019-06-26T14:56:18.560Z,60.78
2019-06-26T14:58:47.718Z,59.07
2019-06-26T15:01:14.976Z,55.27
2019-06-26T15:03:42.353Z,48.00
2019-06-26T15:06:16.863Z,47.08
2019-06-26T15:08:48.240Z,51.68
2019-06-26T15:11:15.854Z,56.23
2019-06-26T15:13:43.131Z,58.30
2019-06-26T15:16:10.189Z,58.73
2019-06-26T15:18:38.348Z,57.33
2019-06-26T15:21:08.377Z,55.72
2019-06-26T15:23:37.081Z,56.43
2019-06-26T15:26:06.656Z,57.88
2019-06-26T15:28:41.480Z,59.87
2019-06-26T15:31:08.589Z,60.66
2019-06-26T15:33:41.179Z,59.46
2019-06-26T15:36:11.877Z,56.60
2019-06-26T15:38:41.055Z,57.57
2019-06-26T15:41:08.150Z,47.98
2019-06-26T15:43:35.240Z,46.28
2019-06-26T15:46:02.890Z,48.54
2019-06-26T15:48:31.895Z,53.35
2019-06-26T15:50:59.026Z,56.60
2019-06-26T15:53:53.226Z,58.60
2019-06-26T15:56:25.350Z,58.40
2019-06-26T15:58:53.517Z,59.22
2019-06-26T16:01:22.275Z,59.09
2019-06-26T16:03:51.151Z,57.80
2019-06-26T16:06:18.283Z,56.86
2019-06-26T16:08:45.383Z,56.00
2019-06-26T16:11:12.595Z,53.52
2019-06-26T16:13:41.486Z,53.54
2019-06-26T16:16:08.733Z,49.80
2019-06-26T16:18:43.539Z,51.34
2019-06-26T16:21:10.868Z,53.16
2019-06-26T16:23:41.333Z,55.07
2019-06-26T16:26:11.084Z,54.65
2019-06-26T16:28:40.228Z,53.44
2019-06-26T16:31:10.184Z,55.22
2019-06-26T16:33:37.595Z,56.45
2019-06-26T16:36:06.047Z,56.49
2019-06-26T16:38:34.713Z,56.76
2019-06-26T16:41:02.488Z,51.57
2019-06-26T16:43:29.823Z,47.90
2019-06-26T16:45:56.879Z,46.89
2019-06-26T16:48:24.415Z,44.52
2019-06-26T16:50:51.463Z,44.26
2019-06-26T16:53:18.561Z,45.55
2019-06-26T16:55:48.661Z,48.62
2019-06-26T16:58:15.695Z,50.15
2019-06-26T17:00:43.079Z,50.48
2019-06-26T17:03:10.339Z,50.08
2019-06-26T17:05:38.500Z,50.36
2019-06-26T17:08:09.966Z,49.08
2019-06-26T17:10:37.378Z,47.85
2019-06-26T17:13:04.424Z,45.77
2019-06-26T17:15:31.934Z,45.82
2019-06-26T17:18:00.218Z,46.47
2019-06-26T17:20:27.312Z,48.12
2019-06-26T17:23:05.234Z,47.24
2019-06-26T17:25:23.345Z,46.00
2019-06-26T17:27:51.200Z,46.07
2019-06-26T17:30:19.950Z,45.92
2019-06-26T17:32:50.493Z,44.58
2019-06-26T17:35:19.346Z,44.39
2019-06-26T17:37:49.211Z,44.63
2019-06-26T17:40:16.974Z,44.34
2019-06-26T17:42:44.041Z,43.58
2019-06-26T17:45:12.002Z,44.39
2019-06-26T17:47:42.336Z,43.21
2019-06-26T17:50:11.000Z,43.23
2019-06-26T17:52:38.790Z,41.50
2019-06-26T17:55:07.772Z,40.95
2019-06-26T17:57:34.914Z,41.18
2019-06-26T18:00:14.614Z,40.38
2019-06-26T18:02:42.020Z,39.09
2019-06-26T18:05:09.912Z,39.76
2019-06-26T18:07:39.488Z,40.71
2019-06-26T18:10:08.514Z,40.16
2019-06-26T18:12:35.677Z,40.02
2019-06-26T18:15:14.626Z,39.97
2019-06-26T18:17:42.941Z,39.93
2019-06-26T18:20:19.146Z,40.37
2019-06-26T18:26:43.224Z,39.67
2019-06-26T18:29:15.711Z,38.79
2019-06-26T18:31:51.351Z,37.62
2019-06-26T18:34:24.542Z,37.64
2019-06-26T18:36:51.686Z,36.84
2019-06-26T18:39:20.590Z,36.44
2019-06-26T18:41:49.220Z,36.14
2019-06-26T18:44:16.301Z,36.32
2019-06-26T18:46:43.425Z,35.95
2019-06-26T18:49:10.499Z,35.90
2019-06-26T18:51:37.604Z,35.43
2019-06-26T18:54:05.046Z,34.99
2019-06-26T18:56:32.156Z,34.78
2019-06-26T18:58:59.192Z,34.40
2019-06-26T19:01:28.098Z,34.11
2019-06-26T19:03:55.166Z,33.89
2019-06-26T19:06:22.344Z,33.63
2019-06-26T19:08:49.420Z,33.43
2019-06-26T19:11:17.080Z,33.27
2019-06-26T19:13:50.074Z,33.16
2019-06-26T19:16:17.035Z,32.96
2019-06-26T19:18:44.487Z,32.84
2019-06-26T19:21:11.813Z,32.66
2019-06-26T19:23:38.925Z,32.50
2019-06-26T19:26:06.306Z,32.34
2019-06-26T19:28:33.820Z,32.22
2019-06-26T19:31:00.941Z,32.05
2019-06-26T19:33:28.078Z,32.07
2019-06-26T19:35:59.467Z,31.94
2019-06-26T19:38:28.684Z,31.88
2019-06-26T19:40:56.061Z,31.78
2019-06-26T19:43:23.143Z,31.71
2019-06-26T19:45:50.304Z,31.58
2019-06-26T19:48:17.417Z,31.50
2019-06-26T19:50:44.624Z,31.45
2019-06-26T19:53:12.887Z,31.36
2019-06-26T19:55:49.713Z,31.22
2019-06-26T19:58:21.637Z,31.22
2019-06-26T20:01:12.259Z,31.08
2019-06-26T20:04:02.265Z,31.10
2019-06-26T20:06:48.447Z,31.08
2019-06-26T20:09:22.522Z,31.03
2019-06-26T20:11:58.732Z,31.10
2019-06-26T20:14:39.266Z,31.24
2019-06-26T20:17:24.375Z,30.99
2019-06-26T20:19:54.267Z,31.03
2019-06-26T20:22:22.806Z,30.99
2019-06-26T20:24:53.179Z,31.04
2019-06-26T20:27:23.111Z,30.69
2019-06-26T20:30:02.330Z,30.55
2019-06-26T20:32:33.356Z,30.55
2019-06-26T20:35:01.143Z,30.52
2019-06-26T20:37:42.725Z,30.62
2019-06-26T20:40:21.863Z,30.60
2019-06-26T20:42:58.438Z,30.52
2019-06-26T20:45:32.251Z,30.46
2019-06-26T20:47:59.602Z,30.47
2019-06-26T20:50:31.213Z,30.35
2019-06-26T20:53:28.074Z,30.28
2019-06-26T20:56:07.382Z,30.26
2019-06-26T20:58:36.379Z,30.23
2019-06-26T21:01:03.851Z,30.17
2019-06-26T21:03:31.209Z,30.06
2019-06-26T21:05:58.338Z,30.02
2019-06-26T21:08:29.207Z,29.88
2019-06-26T21:10:56.932Z,29.75
2019-06-26T21:13:24.041Z,29.79
2019-06-26T21:15:53.027Z,29.67
2019-06-26T21:18:20.456Z,29.57
2019-06-26T21:20:47.524Z,29.51
2019-06-26T21:23:18.787Z,29.43
2019-06-26T21:25:46.130Z,29.35
2019-06-26T21:28:14.962Z,29.39
2019-06-26T21:30:45.477Z,29.29
2019-06-26T21:33:12.619Z,29.24
2019-06-26T21:35:39.724Z,29.17
2019-06-26T21:38:06.770Z,29.16
2019-06-26T21:40:33.852Z,29.15
2019-06-26T21:43:01.002Z,29.16
2019-06-26T21:45:28.283Z,29.13
2019-06-26T21:47:55.375Z,29.00
2019-06-26T21:50:22.424Z,29.05
2019-06-26T21:52:49.799Z,28.90
2019-06-26T21:55:33.360Z,28.84
2019-06-26T21:58:07.566Z,28.83
2019-06-26T22:00:54.045Z,28.73
2019-06-26T22:03:39.983Z,28.72
2019-06-26T22:06:17.893Z,28.57
2019-06-26T22:08:46.973Z,28.46
2019-06-26T22:11:16.049Z,28.45
2019-06-26T22:13:43.224Z,28.48
2019-06-26T22:16:13.005Z,28.35
2019-06-26T22:18:40.428Z,28.40
2019-06-26T22:21:07.496Z,28.46
2019-06-26T22:23:34.588Z,28.25
2019-06-26T22:26:01.686Z,28.30
2019-06-26T22:28:28.763Z,28.25
2019-06-26T22:30:56.028Z,28.17
2019-06-26T22:33:23.157Z,28.11
2019-06-26T22:35:50.591Z,28.12
2019-06-26T22:38:17.727Z,27.93
2019-06-26T22:40:46.587Z,27.91
2019-06-26T22:43:15.315Z,27.84
2019-06-26T22:45:42.377Z,27.84
2019-06-26T22:48:09.414Z,27.83
2019-06-26T22:50:36.505Z,27.72
2019-06-26T22:53:03.831Z,27.70
2019-06-26T22:55:31.002Z,27.58
2019-06-26T22:57:58.185Z,27.61
2019-06-26T23:00:25.230Z,27.49
2019-06-26T23:02:52.282Z,27.42
2019-06-26T23:05:19.400Z,27.34
2019-06-26T23:07:46.489Z,27.33
2019-06-26T23:10:14.048Z,27.29
2019-06-26T23:12:41.133Z,27.23
2019-06-26T23:15:10.307Z,27.31
2019-06-26T23:17:37.334Z,27.25
2019-06-26T23:20:06.336Z,27.21
2019-06-26T23:22:33.561Z,27.13
2019-06-26T23:25:00.618Z,27.06
2019-06-26T23:27:27.679Z,27.02
2019-06-26T23:29:54.756Z,27.03
2019-06-26T23:32:21.797Z,26.99
2019-06-26T23:34:48.865Z,26.86
2019-06-26T23:37:15.942Z,26.83
2019-06-26T23:39:45.381Z,26.79
2019-06-26T23:42:12.753Z,26.71
2019-06-26T23:44:39.803Z,26.74
2019-06-26T23:47:06.879Z,26.69
2019-06-26T23:49:35.148Z,26.68
2019-06-26T23:52:02.256Z,26.46
2019-06-26T23:54:29.307Z,26.47
2019-06-26T23:56:56.327Z,26.38
2019-06-26T23:59:23.419Z,26.32
